createdAt,value
2017-12-30T00:00:33.610Z,1.20
2017-12-30T00:03:01.825Z,1.30
2017-12-30T00:05:29.344Z,1.30
2017-12-30T00:07:57.616Z,1.40
2017-12-30T00:10:25.886Z,1.30
2017-12-30T00:12:54.175Z,1.40
2017-12-30T00:15:22.438Z,1.40
2017-12-30T00:17:49.908Z,1.40
2017-12-30T00:20:17.376Z,1.40
2017-12-30T00:22:44.890Z,1.40
2017-12-30T00:25:13.151Z,1.50
2017-12-30T00:27:40.642Z,1.50
2017-12-30T00:30:08.093Z,1.60
2017-12-30T00:32:35.559Z,1.60
2017-12-30T00:35:03.834Z,1.70
2017-12-30T00:37:31.325Z,1.70
2017-12-30T00:39:58.833Z,1.80
2017-12-30T00:42:26.284Z,1.80
2017-12-30T00:44:53.807Z,1.90
2017-12-30T00:47:21.334Z,1.90
2017-12-30T00:49:48.831Z,1.90
2017-12-30T00:52:16.286Z,2.00
2017-12-30T00:54:43.752Z,2.10
2017-12-30T00:57:11.217Z,2.10
2017-12-30T00:59:38.705Z,2.10
2017-12-30T01:02:06.214Z,2.20
2017-12-30T01:04:33.682Z,2.20
2017-12-30T01:07:01.128Z,2.20
2017-12-30T01:09:28.612Z,2.20
2017-12-30T01:11:56.068Z,2.20
2017-12-30T01:14:23.545Z,2.30
2017-12-30T01:16:51.010Z,2.30
2017-12-30T01:19:18.481Z,2.30
2017-12-30T01:21:45.956Z,2.30
2017-12-30T01:24:14.180Z,2.40
2017-12-30T01:26:41.656Z,2.30
2017-12-30T01:29:09.120Z,2.30
2017-12-30T01:31:36.585Z,2.40
2017-12-30T01:34:04.061Z,2.40
2017-12-30T01:36:32.289Z,2.50
2017-12-30T01:38:59.760Z,2.50
2017-12-30T01:41:27.229Z,2.50
2017-12-30T01:43:54.688Z,2.60
2017-12-30T01:46:22.155Z,2.60
2017-12-30T01:49:01.606Z,2.70
2017-12-30T01:51:29.068Z,2.70
2017-12-30T01:53:57.294Z,2.60
2017-12-30T01:56:24.753Z,2.60
2017-12-30T01:58:52.229Z,2.70
2017-12-30T02:01:19.689Z,2.60
2017-12-30T02:03:47.157Z,2.70
2017-12-30T02:06:14.626Z,2.70
2017-12-30T02:08:42.103Z,2.70
2017-12-30T02:11:10.335Z,2.70
2017-12-30T02:13:37.793Z,2.70
2017-12-30T02:16:05.242Z,2.70
2017-12-30T02:18:32.712Z,2.70
2017-12-30T02:21:00.940Z,2.70
2017-12-30T02:23:28.407Z,2.70
2017-12-30T02:25:55.868Z,2.70
2017-12-30T02:28:23.346Z,2.70
2017-12-30T02:30:50.801Z,2.70
2017-12-30T02:33:18.275Z,2.60
2017-12-30T02:35:45.750Z,2.60
2017-12-30T02:38:13.214Z,2.60
2017-12-30T02:40:40.680Z,2.60
2017-12-30T02:43:08.162Z,2.60
2017-12-30T02:45:35.633Z,2.70
2017-12-30T02:48:03.105Z,2.70
2017-12-30T02:50:30.562Z,2.70
2017-12-30T02:52:58.026Z,2.60
2017-12-30T02:55:25.485Z,2.60
2017-12-30T02:57:52.960Z,2.60
2017-12-30T03:00:20.417Z,2.60
2017-12-30T03:02:47.881Z,2.60
2017-12-30T03:05:15.368Z,2.60
2017-12-30T03:07:43.609Z,2.60
2017-12-30T03:10:11.073Z,2.60
2017-12-30T03:12:38.534Z,2.60
2017-12-30T03:15:06.007Z,2.60
2017-12-30T03:17:33.484Z,2.50
2017-12-30T03:20:01.733Z,2.50
2017-12-30T03:22:29.203Z,2.50
2017-12-30T03:24:56.681Z,2.50
2017-12-30T03:27:24.900Z,2.50
2017-12-30T03:29:52.356Z,2.40
2017-12-30T03:32:19.814Z,2.40
2017-12-30T03:34:47.281Z,2.30
2017-12-30T03:37:14.762Z,2.20
2017-12-30T03:39:42.229Z,2.10
2017-12-30T03:42:09.688Z,2.00
2017-12-30T03:44:37.153Z,1.90
2017-12-30T03:47:05.385Z,1.60
2017-12-30T03:49:32.865Z,1.60
2017-12-30T03:52:00.316Z,1.50
2017-12-30T03:54:27.776Z,1.40
2017-12-30T03:56:55.248Z,1.40
2017-12-30T03:59:22.711Z,1.30
2017-12-30T04:01:50.184Z,1.20
2017-12-30T04:04:18.421Z,1.10
2017-12-30T04:06:45.885Z,1.10
2017-12-30T04:09:13.353Z,1.10
2017-12-30T04:11:40.814Z,1.10
2017-12-30T04:14:08.272Z,1.20
2017-12-30T04:16:35.732Z,1.20
2017-12-30T04:19:03.205Z,1.30
2017-12-30T04:21:30.673Z,1.30
2017-12-30T04:23:58.899Z,1.30
2017-12-30T04:26:26.365Z,1.30
2017-12-30T04:28:53.824Z,1.30
2017-12-30T04:31:21.320Z,1.20
2017-12-30T04:33:49.549Z,1.00
2017-12-30T04:36:17.022Z,0.90
2017-12-30T04:38:44.484Z,0.90
2017-12-30T04:41:11.952Z,0.80
2017-12-30T04:43:39.420Z,0.80
2017-12-30T04:46:06.892Z,0.90
2017-12-30T04:48:35.128Z,1.10
2017-12-30T04:51:02.612Z,1.10
2017-12-30T04:53:30.065Z,1.20
2017-12-30T04:55:57.553Z,1.30
2017-12-30T04:58:25.781Z,1.40
2017-12-30T05:00:53.248Z,1.40
2017-12-30T05:03:20.715Z,1.50
2017-12-30T05:05:48.189Z,1.50
2017-12-30T05:08:15.657Z,1.50
2017-12-30T05:10:43.886Z,1.60
2017-12-30T05:13:11.358Z,1.60
2017-12-30T05:15:38.821Z,1.60
2017-12-30T05:18:06.298Z,1.70
2017-12-30T05:20:34.527Z,1.70
2017-12-30T05:23:01.987Z,1.60
2017-12-30T05:25:29.459Z,1.70
2017-12-30T05:27:56.926Z,1.80
2017-12-30T05:30:24.380Z,1.70
2017-12-30T05:32:51.863Z,1.60
2017-12-30T05:35:19.325Z,1.50
2017-12-30T05:37:47.557Z,1.20
2017-12-30T05:40:15.038Z,1.20
2017-12-30T05:42:42.509Z,1.00
2017-12-30T05:45:09.974Z,1.00
2017-12-30T05:47:38.220Z,0.80
2017-12-30T05:50:05.676Z,0.80
2017-12-30T05:52:33.141Z,0.70
2017-12-30T05:55:00.613Z,0.60
2017-12-30T05:57:28.080Z,0.50
2017-12-30T05:59:55.557Z,0.40
2017-12-30T06:02:23.776Z,0.30
2017-12-30T06:04:51.248Z,0.30
2017-12-30T06:07:18.725Z,0.30
2017-12-30T06:09:46.216Z,0.30
2017-12-30T06:12:13.694Z,0.30
2017-12-30T06:14:41.157Z,0.30
2017-12-30T06:17:08.621Z,0.30
2017-12-30T06:19:36.091Z,0.30
2017-12-30T06:22:03.613Z,0.30
2017-12-30T06:24:31.076Z,0.30
2017-12-30T06:26:58.540Z,0.20
2017-12-30T06:29:26.014Z,0.30
2017-12-30T06:31:53.474Z,0.20
2017-12-30T06:34:20.952Z,0.40
2017-12-30T06:36:48.417Z,0.40
2017-12-30T06:39:15.888Z,0.50
2017-12-30T06:41:43.354Z,0.50
2017-12-30T06:44:11.599Z,0.50
2017-12-30T06:46:39.064Z,0.50
2017-12-30T06:49:06.534Z,0.50
2017-12-30T06:51:34.001Z,0.50
2017-12-30T06:54:02.230Z,0.40
2017-12-30T06:56:29.693Z,0.40
2017-12-30T06:58:57.160Z,0.40
2017-12-30T07:01:24.615Z,0.30
2017-12-30T07:03:52.071Z,0.40
2017-12-30T07:06:19.543Z,0.40
2017-12-30T07:08:47.018Z,0.30
2017-12-30T07:11:14.481Z,0.30
2017-12-30T07:13:42.713Z,0.20
2017-12-30T07:16:10.193Z,0.20
2017-12-30T07:18:37.659Z,0.10
2017-12-30T07:21:05.132Z,0.10
2017-12-30T07:23:33.381Z,0.20
2017-12-30T07:26:00.859Z,0.20
2017-12-30T07:28:28.315Z,0.20
2017-12-30T07:30:55.774Z,0.20
2017-12-30T07:33:23.233Z,0.30
2017-12-30T07:35:50.717Z,0.30
2017-12-30T07:38:18.969Z,0.40
2017-12-30T07:40:46.424Z,0.40
2017-12-30T07:43:13.888Z,0.50
2017-12-30T07:45:41.363Z,0.60
2017-12-30T07:48:08.817Z,0.70
2017-12-30T07:50:36.272Z,0.70
2017-12-30T07:53:04.769Z,0.80
2017-12-30T07:55:32.255Z,0.90
2017-12-30T07:57:59.858Z,1.00
2017-12-30T08:00:27.321Z,1.00
2017-12-30T08:03:04.717Z,1.10
2017-12-30T08:05:32.198Z,1.20
2017-12-30T08:08:00.433Z,1.40
2017-12-30T08:10:27.919Z,1.40
2017-12-30T08:12:55.407Z,1.40
2017-12-30T08:15:22.893Z,1.60
2017-12-30T08:17:50.392Z,1.60
2017-12-30T08:20:17.869Z,1.70
2017-12-30T08:22:45.393Z,1.70
2017-12-30T08:25:12.904Z,1.80
2017-12-30T08:27:40.392Z,1.70
2017-12-30T08:30:07.878Z,1.70
2017-12-30T08:32:35.402Z,1.70
2017-12-30T08:35:02.968Z,1.70
2017-12-30T08:37:30.606Z,1.70
2017-12-30T08:39:58.598Z,1.80
2017-12-30T08:42:26.156Z,1.80
2017-12-30T08:44:53.659Z,1.90
2017-12-30T08:47:21.201Z,1.90
2017-12-30T08:49:48.703Z,2.00
2017-12-30T08:52:16.942Z,2.10
2017-12-30T08:54:45.404Z,2.00
2017-12-30T08:57:12.873Z,2.10
2017-12-30T08:59:40.424Z,2.20
2017-12-30T09:02:07.929Z,2.20
2017-12-30T09:04:37.175Z,2.30
2017-12-30T09:07:04.818Z,2.30
2017-12-30T09:09:32.374Z,2.40
2017-12-30T09:11:59.892Z,2.50
2017-12-30T09:14:27.412Z,2.60
2017-12-30T09:16:54.957Z,2.70
2017-12-30T09:19:22.480Z,2.70
2017-12-30T09:21:50.000Z,2.90
2017-12-30T09:24:17.572Z,3.00
2017-12-30T09:26:45.086Z,3.00
2017-12-30T09:29:13.395Z,3.10
2017-12-30T09:31:40.931Z,3.10
2017-12-30T09:34:08.425Z,3.10
2017-12-30T09:36:36.737Z,3.10
2017-12-30T09:42:08.375Z,3.10
2017-12-30T09:44:39.355Z,3.10
2017-12-30T09:47:06.987Z,3.10
2017-12-30T09:49:35.549Z,3.00
2017-12-30T09:52:03.023Z,2.90
2017-12-30T09:54:31.227Z,3.10
2017-12-30T09:56:58.673Z,3.00
2017-12-30T09:59:26.913Z,3.00
2017-12-30T10:01:54.525Z,3.00
2017-12-30T10:04:22.780Z,3.20
2017-12-30T10:06:50.286Z,3.10
2017-12-30T10:09:17.853Z,3.30
2017-12-30T10:11:45.338Z,3.20
2017-12-30T10:14:12.821Z,3.30
2017-12-30T10:16:40.343Z,3.30
2017-12-30T10:19:07.831Z,3.30
2017-12-30T10:21:35.306Z,3.30
2017-12-30T10:24:03.569Z,3.20
2017-12-30T10:26:31.063Z,3.10
2017-12-30T10:28:58.559Z,3.10
2017-12-30T10:31:26.066Z,3.00
2017-12-30T10:33:54.314Z,2.90
2017-12-30T10:36:21.830Z,2.90
2017-12-30T10:38:49.286Z,2.80
2017-12-30T10:41:16.759Z,2.90
2017-12-30T10:43:44.253Z,2.90
2017-12-30T10:46:11.732Z,2.90
2017-12-30T10:48:39.213Z,2.90
2017-12-30T10:51:06.706Z,2.90
2017-12-30T10:53:34.174Z,2.80
2017-12-30T10:56:01.667Z,2.70
2017-12-30T10:58:29.933Z,2.70
2017-12-30T11:00:58.229Z,2.70
2017-12-30T11:03:26.542Z,2.80
2017-12-30T11:05:54.025Z,2.80
2017-12-30T11:08:21.566Z,2.80
2017-12-30T11:10:49.115Z,2.80
2017-12-30T11:13:16.678Z,2.80
2017-12-30T11:15:44.247Z,2.80
2017-12-30T11:18:11.791Z,2.80
2017-12-30T11:20:40.066Z,2.90
2017-12-30T11:23:08.380Z,2.90
2017-12-30T11:25:35.935Z,2.90
2017-12-30T11:28:03.473Z,2.90
2017-12-30T11:30:31.058Z,2.90
2017-12-30T11:35:46.995Z,3.00
2017-12-30T11:38:14.551Z,3.00
2017-12-30T11:40:42.079Z,3.10
2017-12-30T11:43:09.610Z,3.20
2017-12-30T11:45:37.159Z,3.20
2017-12-30T11:48:05.470Z,3.20
2017-12-30T11:50:33.013Z,3.20
2017-12-30T11:53:00.575Z,3.10
2017-12-30T11:55:28.104Z,2.90
2017-12-30T11:57:55.630Z,2.90
2017-12-30T12:00:23.204Z,3.00
2017-12-30T12:02:50.746Z,2.90
2017-12-30T12:05:18.866Z,2.90
2017-12-30T12:10:42.499Z,3.00
2017-12-30T12:13:09.967Z,3.00
2017-12-30T12:15:38.208Z,3.00
2017-12-30T12:18:05.687Z,3.00
2017-12-30T12:20:33.150Z,3.00
2017-12-30T12:23:00.610Z,3.10
2017-12-30T12:25:28.079Z,3.10
2017-12-30T12:27:56.343Z,3.10
2017-12-30T12:30:23.812Z,3.10
2017-12-30T12:32:52.031Z,3.20
2017-12-30T12:35:19.496Z,3.20
2017-12-30T12:37:46.963Z,3.20
2017-12-30T12:40:14.427Z,3.30
2017-12-30T12:42:41.887Z,3.30
2017-12-30T12:45:09.350Z,3.40
2017-12-30T12:47:36.845Z,3.40
2017-12-30T12:50:04.384Z,3.50
2017-12-30T12:52:32.781Z,3.60
2017-12-30T12:55:00.330Z,3.60
2017-12-30T12:57:27.807Z,3.70
2017-12-30T12:59:55.296Z,3.90
2017-12-30T13:02:22.827Z,4.00
2017-12-30T13:04:50.308Z,4.20
2017-12-30T13:07:18.570Z,4.20
2017-12-30T13:09:46.076Z,4.20
2017-12-30T13:12:13.587Z,4.20
2017-12-30T13:14:41.074Z,4.30
2017-12-30T13:17:08.584Z,4.30
2017-12-30T13:19:36.069Z,4.40
2017-12-30T13:22:03.568Z,4.40
2017-12-30T13:24:31.050Z,4.40
2017-12-30T13:26:58.519Z,4.50
2017-12-30T13:29:26.021Z,4.60
2017-12-30T13:31:54.320Z,4.70
2017-12-30T13:34:21.817Z,4.80
2017-12-30T13:36:49.334Z,4.90
2017-12-30T13:39:17.569Z,4.90
2017-12-30T13:41:45.107Z,4.90
2017-12-30T13:44:12.630Z,5.00
2017-12-30T13:46:40.879Z,5.10
2017-12-30T13:49:08.415Z,5.10
2017-12-30T13:51:36.003Z,5.10
2017-12-30T13:54:03.491Z,5.10
2017-12-30T13:56:31.004Z,5.10
2017-12-30T13:58:58.526Z,5.10
2017-12-30T14:01:26.814Z,5.10
2017-12-30T14:03:55.075Z,5.10
2017-12-30T14:06:23.337Z,5.10
2017-12-30T14:08:50.821Z,5.10
2017-12-30T14:11:19.099Z,5.10
2017-12-30T14:13:46.598Z,5.10
2017-12-30T14:16:14.180Z,5.20
2017-12-30T14:21:45.598Z,5.30
2017-12-30T14:24:13.133Z,5.20
2017-12-30T14:26:40.623Z,5.30
2017-12-30T14:29:08.162Z,5.30
2017-12-30T14:31:35.637Z,5.40
2017-12-30T14:34:03.109Z,5.40
2017-12-30T14:36:30.660Z,5.50
2017-12-30T14:38:58.154Z,5.60
2017-12-30T14:41:26.397Z,5.70
2017-12-30T14:43:53.920Z,5.70
2017-12-30T14:46:21.464Z,5.80
2017-12-30T14:48:49.697Z,5.80
2017-12-30T14:51:17.222Z,5.80
2017-12-30T14:53:44.731Z,5.90
2017-12-30T14:56:12.974Z,5.90
2017-12-30T14:58:40.466Z,5.90
2017-12-30T15:01:08.020Z,6.00
2017-12-30T15:03:35.521Z,6.00
2017-12-30T15:06:03.038Z,6.10
2017-12-30T15:08:30.559Z,6.30
2017-12-30T15:10:58.058Z,6.40
2017-12-30T15:13:25.557Z,6.50
2017-12-30T15:15:53.173Z,6.60
2017-12-30T15:18:20.726Z,6.60
2017-12-30T15:20:48.317Z,6.70
2017-12-30T15:23:15.843Z,6.70
2017-12-30T15:25:43.400Z,6.80
2017-12-30T15:28:10.881Z,6.80
2017-12-30T15:30:38.374Z,6.80
2017-12-30T15:33:05.879Z,6.90
2017-12-30T15:35:33.374Z,7.00
2017-12-30T15:38:00.909Z,7.00
2017-12-30T15:40:28.390Z,7.00
2017-12-30T15:42:55.885Z,7.00
2017-12-30T15:45:24.264Z,7.10
2017-12-30T15:47:51.800Z,7.10
2017-12-30T15:50:20.118Z,7.20
2017-12-30T15:52:57.579Z,7.10
2017-12-30T15:55:25.188Z,7.20
2017-12-30T15:57:52.695Z,7.20
2017-12-30T16:00:21.049Z,7.30
2017-12-30T16:02:49.409Z,7.30
2017-12-30T16:05:16.952Z,7.30
2017-12-30T16:07:44.467Z,7.40
2017-12-30T16:10:12.811Z,7.30
2017-12-30T16:12:40.358Z,7.30
2017-12-30T16:15:07.831Z,7.30
2017-12-30T16:17:36.145Z,7.30
2017-12-30T16:20:03.714Z,7.40
2017-12-30T16:22:32.135Z,7.30
2017-12-30T16:28:03.633Z,7.30
2017-12-30T16:30:31.854Z,7.40
2017-12-30T16:32:59.359Z,7.40
2017-12-30T16:35:26.853Z,7.40
2017-12-30T16:37:54.314Z,7.50
2017-12-30T16:40:21.892Z,7.50
2017-12-30T16:42:49.376Z,7.60
2017-12-30T16:45:16.848Z,7.60
2017-12-30T16:47:44.306Z,7.70
2017-12-30T16:50:11.800Z,7.80
2017-12-30T16:52:39.284Z,7.80
2017-12-30T16:55:06.775Z,7.80
2017-12-30T16:57:35.039Z,7.90
2017-12-30T17:00:03.326Z,8.00
2017-12-30T17:02:31.667Z,8.00
2017-12-30T17:04:59.143Z,8.00
2017-12-30T17:07:26.710Z,8.00
2017-12-30T17:09:54.997Z,8.00
2017-12-30T17:12:23.248Z,7.90
2017-12-30T17:14:50.822Z,7.90
2017-12-30T17:17:18.298Z,8.00
2017-12-30T17:19:46.575Z,8.20
2017-12-30T17:22:14.090Z,8.20
2017-12-30T17:27:37.943Z,8.30
2017-12-30T17:30:06.179Z,8.30
2017-12-30T17:32:33.636Z,8.30
2017-12-30T17:35:01.094Z,8.30
2017-12-30T17:37:28.603Z,8.30
2017-12-30T17:39:56.109Z,8.30
2017-12-30T17:42:23.761Z,8.30
2017-12-30T17:44:51.268Z,8.40
2017-12-30T17:47:19.483Z,8.40
2017-12-30T17:49:46.959Z,8.40
2017-12-30T17:52:14.535Z,8.50
2017-12-30T17:54:42.852Z,8.60
2017-12-30T17:57:10.391Z,8.50
2017-12-30T17:59:38.681Z,8.60
2017-12-30T18:02:06.190Z,8.60
2017-12-30T18:04:33.735Z,8.50
2017-12-30T18:07:01.277Z,8.50
2017-12-30T18:09:28.822Z,8.60
2017-12-30T18:11:56.298Z,8.70
2017-12-30T18:14:23.899Z,8.70
2017-12-30T18:16:51.448Z,8.80
2017-12-30T18:19:19.025Z,8.80
2017-12-30T18:21:46.566Z,8.80
2017-12-30T18:24:14.053Z,8.80
2017-12-30T18:26:41.535Z,8.80
2017-12-30T18:29:09.830Z,8.80
2017-12-30T18:31:37.385Z,8.80
2017-12-30T18:37:01.097Z,8.80
2017-12-30T18:39:28.677Z,8.80
2017-12-30T18:41:56.340Z,8.80
2017-12-30T18:44:23.918Z,8.80
2017-12-30T18:46:51.504Z,8.90
2017-12-30T18:49:19.804Z,9.00
2017-12-30T18:51:47.401Z,9.00
2017-12-30T18:54:14.966Z,9.00
2017-12-30T18:56:42.548Z,9.00
2017-12-30T18:59:10.162Z,9.00
2017-12-30T19:01:37.810Z,9.00
2017-12-30T19:04:05.410Z,9.10
2017-12-30T19:06:32.985Z,9.10
2017-12-30T19:09:00.579Z,9.10
2017-12-30T19:11:28.140Z,9.00
2017-12-30T19:13:55.779Z,9.00
2017-12-30T19:16:23.353Z,9.00
2017-12-30T19:18:51.674Z,9.10
2017-12-30T19:21:19.271Z,9.10
2017-12-30T19:23:46.889Z,9.10
2017-12-30T19:26:14.550Z,9.20
2017-12-30T19:28:42.910Z,9.10
2017-12-30T19:31:10.489Z,9.20
2017-12-30T19:33:38.105Z,9.20
2017-12-30T19:36:05.672Z,9.20
2017-12-30T19:38:33.325Z,9.20
2017-12-30T19:41:00.921Z,9.20
2017-12-30T19:43:29.391Z,9.30
2017-12-30T19:45:57.005Z,9.30
2017-12-30T19:48:24.563Z,9.30
2017-12-30T19:50:52.187Z,9.30
2017-12-30T19:53:20.582Z,9.30
2017-12-30T19:55:48.217Z,9.30
2017-12-30T19:58:15.803Z,9.30
2017-12-30T20:00:43.403Z,9.20
2017-12-30T20:03:11.030Z,9.20
2017-12-30T20:05:39.368Z,9.10
2017-12-30T20:08:07.225Z,9.10
2017-12-30T20:10:34.793Z,9.10
2017-12-30T20:13:02.419Z,9.10
2017-12-30T20:15:30.012Z,9.10
2017-12-30T20:17:57.646Z,9.20
2017-12-30T20:20:25.233Z,9.20
2017-12-30T20:22:52.800Z,9.20
2017-12-30T20:25:20.415Z,9.20
2017-12-30T20:27:48.036Z,9.30
2017-12-30T20:30:15.635Z,9.30
2017-12-30T20:32:43.258Z,9.30
2017-12-30T20:35:10.909Z,9.40
2017-12-30T20:40:41.698Z,9.50
2017-12-30T20:43:10.564Z,9.50
2017-12-30T20:45:38.844Z,9.50
2017-12-30T20:48:07.109Z,9.50
2017-12-30T20:50:34.623Z,9.50
2017-12-30T20:53:02.136Z,9.50
2017-12-30T20:55:29.665Z,9.60
2017-12-30T20:57:57.967Z,9.60
2017-12-30T21:00:25.488Z,9.50
2017-12-30T21:02:53.063Z,9.50
2017-12-30T21:05:20.667Z,9.50
2017-12-30T21:07:48.992Z,9.30
2017-12-30T21:10:16.581Z,9.30
2017-12-30T21:12:53.940Z,9.30
2017-12-30T21:15:21.558Z,9.30
2017-12-30T21:17:49.106Z,9.30
2017-12-30T21:20:16.710Z,9.30
2017-12-30T21:22:45.077Z,9.30
2017-12-30T21:25:13.466Z,9.30
2017-12-30T21:27:41.820Z,9.30
2017-12-30T21:30:09.405Z,9.30
2017-12-30T21:32:37.787Z,9.30
2017-12-30T21:35:06.161Z,9.30
2017-12-30T21:37:33.739Z,9.30
2017-12-30T21:40:02.083Z,9.20
2017-12-30T21:42:29.739Z,9.20
2017-12-30T21:44:57.341Z,9.20
2017-12-30T21:47:24.960Z,9.10
2017-12-30T21:49:52.527Z,9.10
2017-12-30T21:52:20.101Z,9.10
2017-12-30T21:54:48.506Z,9.10
2017-12-30T21:57:16.106Z,9.10
2017-12-30T21:59:44.485Z,9.10
2017-12-30T22:02:12.035Z,9.10
2017-12-30T22:04:39.643Z,9.10
2017-12-30T22:07:08.061Z,9.10
2017-12-30T22:09:39.297Z,9.10
2017-12-30T22:12:06.902Z,9.10
2017-12-30T22:14:35.291Z,9.10
2017-12-30T22:17:03.654Z,9.10
2017-12-30T22:19:32.005Z,9.10
2017-12-30T22:21:59.632Z,9.10
2017-12-30T22:24:27.219Z,9.10
2017-12-30T22:26:54.817Z,9.10
2017-12-30T22:29:22.405Z,9.00
2017-12-30T22:31:50.014Z,9.10
2017-12-30T22:34:17.639Z,9.10
2017-12-30T22:36:45.230Z,9.10
2017-12-30T22:39:12.819Z,9.10
2017-12-30T22:41:40.410Z,9.10
2017-12-30T22:44:08.774Z,9.10
2017-12-30T22:46:37.146Z,9.20
2017-12-30T22:49:04.768Z,9.20
2017-12-30T22:51:32.355Z,9.20
2017-12-30T22:54:00.010Z,9.20
2017-12-30T22:56:27.587Z,9.20
2017-12-30T22:58:55.189Z,9.20
2017-12-30T23:01:23.541Z,9.20
2017-12-30T23:03:51.154Z,9.20
2017-12-30T23:06:18.741Z,9.20
2017-12-30T23:08:46.316Z,9.20
2017-12-30T23:11:13.902Z,9.20
2017-12-30T23:13:42.263Z,9.10
2017-12-30T23:16:09.842Z,9.10
2017-12-30T23:18:38.189Z,9.20
2017-12-30T23:21:05.789Z,9.20
2017-12-30T23:23:34.154Z,9.20
2017-12-30T23:26:01.738Z,9.20
2017-12-30T23:28:29.368Z,9.20
2017-12-30T23:30:56.949Z,9.20
2017-12-30T23:33:25.352Z,9.30
2017-12-30T23:35:52.935Z,9.20
2017-12-30T23:38:20.507Z,9.20
2017-12-30T23:40:48.110Z,9.20
2017-12-30T23:43:16.501Z,9.20
2017-12-30T23:45:44.086Z,9.30
2017-12-30T23:48:11.677Z,9.30
2017-12-30T23:50:39.281Z,9.30
2017-12-30T23:53:07.641Z,9.40
2017-12-30T23:55:35.230Z,9.30
2017-12-30T23:58:02.803Z,9.30
